Time;durP1;ratioP1;P1;durP2;ratioP2;P2;SDS_P1;SDS_P2;PMS_P1;PMS_P2;Temp;Humidity;BMP_temperature;BMP_pressure;BME280_temperature;BME280_humidity;BME280_pressure;Samples;Min_cycle;Max_cycle;Signal;HPM_P1;HPM_P2
2022/08/31 00:06:01;;;;;;;2.03;0.95;;;;;;;;;;4846546;29;20056;-84
2022/08/31 00:10:13;;;;;;;1.90;0.90;;;;;;;;;;4830668;29;20428;-83
2022/08/31 00:14:48;;;;;;;6.75;1.20;;;;;;;;;;4813622;29;20046;-83
2022/08/31 00:18:15;;;;;;;2.13;0.98;;;;;;;;;;4789693;29;20066;-83
2022/08/31 00:22:26;;;;;;;4.28;1.00;;;;;;;;;;4797953;29;20058;-84
2022/08/31 00:26:00;;;;;;;1.88;1.05;;;;;;;;;;4814510;29;20112;-83
2022/08/31 12:20:13;;;;;;;2.20;0.60;;;;;;;;;;4978467;28;20477;-84
2022/08/31 12:29:11;;;;;;;3.70;0.60;;;;;;;;;;4858387;29;20092;-87
2022/08/31 12:33:01;;;;;;;3.60;0.50;;;;;;;;;;4855910;29;20049;-84
2022/08/31 12:37:33;;;;;;;2.17;0.50;;;;;;;;;;4831828;29;20046;-85
2022/08/31 12:42:13;;;;;;;1.25;0.50;;;;;;;;;;4793362;29;20047;-84
2022/08/31 12:46:34;;;;;;;1.33;0.70;;;;;;;;;;4795911;29;20489;-85
2022/08/31 12:50:55;;;;;;;1.45;0.40;;;;;;;;;;4747825;30;20067;-84
2022/08/31 12:55:11;;;;;;;0.88;0.40;;;;;;;;;;4749554;30;20059;-85
2022/08/31 13:08:44;;;;;;;1.60;0.50;;;;;;;;;;4784521;29;20132;-85
2022/08/31 13:46:24;;;;;;;0.47;0.30;;;;;;;;;;4823197;29;20201;-84
2022/08/31 13:51:13;;;;;;;1.02;0.52;;;;;;;;;;4738284;30;20048;-86
2022/08/31 14:14:38;;;;;;;2.05;0.60;;;;;;;;;;4740355;30;20062;-83
2022/08/31 14:17:57;;;;;;;1.48;0.50;;;;;;;;;;4718426;30;20082;-84
2022/08/31 14:21:18;;;;;;;1.45;0.65;;;;;;;;;;4753868;29;20067;-84
2022/08/31 14:24:20;;;;;;;3.17;0.80;;;;;;;;;;4840284;29;20137;-83
2022/08/31 14:31:50;;;;;;;1.35;0.50;;;;;;;;;;4870455;29;20139;-84
2022/08/31 14:35:13;;;;;;;5.43;0.60;;;;;;;;;;4871617;29;20187;-84
2022/08/31 14:40:03;;;;;;;1.15;0.50;;;;;;;;;;4837179;29;20061;-85
2022/08/31 14:44:45;;;;;;;1.30;0.60;;;;;;;;;;4841815;29;20085;-85
2022/08/31 14:48:11;;;;;;;2.05;0.70;;;;;;;;;;4828549;29;20060;-84
2022/08/31 14:53:55;;;;;;;1.67;0.40;;;;;;;;;;4893060;29;20522;-83
2022/08/31 14:56:49;;;;;;;2.60;0.60;;;;;;;;;;4899301;29;20175;-83
2022/08/31 14:59:19;;;;;;;1.25;0.60;;;;;;;;;;4887428;29;20913;-83
2022/08/31 15:01:49;;;;;;;1.30;0.57;;;;;;;;;;4897248;29;20070;-83
2022/08/31 15:04:19;;;;;;;2.50;0.52;;;;;;;;;;4897703;29;20072;-83
2022/08/31 15:07:04;;;;;;;1.35;0.50;;;;;;;;;;4900638;29;20060;-83
2022/08/31 15:10:06;;;;;;;0.88;0.50;;;;;;;;;;4882678;29;20190;-84
2022/08/31 15:14:49;;;;;;;1.65;0.68;;;;;;;;;;4859938;29;20200;-85
2022/08/31 15:18:23;;;;;;;0.85;0.40;;;;;;;;;;4824338;29;20050;-84
2022/08/31 15:21:11;;;;;;;0.93;0.43;;;;;;;;;;4839002;29;20267;-85
2022/08/31 15:23:57;;;;;;;1.65;0.60;;;;;;;;;;4817001;29;20081;-83
2022/08/31 15:26:26;;;;;;;1.58;0.60;;;;;;;;;;4845174;29;20164;-84
2022/08/31 15:29:05;;;;;;;1.00;0.60;;;;;;;;;;4844764;29;20237;-84
2022/08/31 15:31:45;;;;;;;1.92;0.65;;;;;;;;;;4839546;29;20093;-83
2022/08/31 15:34:23;;;;;;;1.42;0.70;;;;;;;;;;4837590;29;20065;-83
2022/08/31 15:37:06;;;;;;;1.83;0.60;;;;;;;;;;4833778;29;20196;-83
2022/08/31 15:40:52;;;;;;;1.48;0.60;;;;;;;;;;4845578;29;20117;-84
2022/08/31 15:45:05;;;;;;;2.55;1.00;;;;;;;;;;4846655;29;20167;-85
2022/08/31 15:49:42;;;;;;;1.80;0.57;;;;;;;;;;4870458;29;20080;-83
2022/08/31 15:53:29;;;;;;;2.20;1.00;;;;;;;;;;4864329;29;20053;-84
2022/08/31 15:56:23;;;;;;;1.25;0.45;;;;;;;;;;4926597;28;20063;-82
2022/08/31 15:59:00;;;;;;;2.10;0.80;;;;;;;;;;4912635;28;20170;-83
2022/08/31 16:01:28;;;;;;;2.28;0.45;;;;;;;;;;4941957;28;20059;-83
2022/08/31 16:04:00;;;;;;;5.25;0.68;;;;;;;;;;4944536;28;20416;-82
2022/08/31 16:06:31;;;;;;;3.38;0.73;;;;;;;;;;4927536;29;20047;-83
2022/08/31 16:08:59;;;;;;;1.30;0.50;;;;;;;;;;4936559;28;20058;-83
2022/08/31 16:11:32;;;;;;;3.17;0.90;;;;;;;;;;4937273;28;22062;-83
2022/08/31 16:14:08;;;;;;;2.13;0.50;;;;;;;;;;4921940;28;20155;-82
2022/08/31 16:16:39;;;;;;;1.67;0.82;;;;;;;;;;4935730;28;20079;-83
2022/08/31 16:19:10;;;;;;;3.25;0.70;;;;;;;;;;4936305;28;20115;-82
2022/08/31 16:22:21;;;;;;;1.77;0.80;;;;;;;;;;4936919;28;20141;-83
2022/08/31 16:24:54;;;;;;;2.03;0.77;;;;;;;;;;4938879;28;20048;-83
2022/08/31 16:27:28;;;;;;;2.22;1.08;;;;;;;;;;4935261;28;20883;-83
2022/08/31 16:29:57;;;;;;;3.35;0.80;;;;;;;;;;4934629;28;20319;-81
2022/08/31 16:32:26;;;;;;;3.65;0.57;;;;;;;;;;4937144;28;20070;-83
2022/08/31 16:35:09;;;;;;;1.30;0.63;;;;;;;;;;4924402;28;20059;-84
2022/08/31 16:38:02;;;;;;;3.67;0.80;;;;;;;;;;4934134;28;20059;-84
2022/08/31 16:40:30;;;;;;;2.40;0.75;;;;;;;;;;4938103;28;20058;-82
2022/08/31 16:42:58;;;;;;;2.97;0.80;;;;;;;;;;4938205;28;20758;-81
2022/08/31 16:45:50;;;;;;;0.93;0.60;;;;;;;;;;4978274;28;20121;-83
2022/08/31 16:51:13;;;;;;;2.15;0.60;;;;;;;;;;4977578;28;20576;-81
2022/08/31 16:55:10;;;;;;;1.30;0.47;;;;;;;;;;4979788;28;20522;-83
2022/08/31 16:58:57;;;;;;;1.95;0.70;;;;;;;;;;4894610;29;20199;-84
2022/08/31 17:01:43;;;;;;;2.42;0.63;;;;;;;;;;4875942;29;20063;-84
2022/08/31 17:04:15;;;;;;;3.97;0.80;;;;;;;;;;4881409;29;20079;-84
2022/08/31 17:07:23;;;;;;;2.45;0.80;;;;;;;;;;4895511;29;20119;-85
2022/08/31 17:11:01;;;;;;;4.32;0.70;;;;;;;;;;4883828;29;20172;-86
2022/08/31 17:15:12;;;;;;;1.23;0.50;;;;;;;;;;4868665;29;20123;-83
2022/08/31 17:19:32;;;;;;;4.65;0.85;;;;;;;;;;4804122;29;20961;-84
2022/08/31 17:28:58;;;;;;;1.15;0.50;;;;;;;;;;4744440;29;20159;-85
2022/08/31 17:32:50;;;;;;;2.63;0.70;;;;;;;;;;4722065;30;20218;-84
2022/08/31 18:27:38;;;;;;;3.67;1.00;;;;;;;;;;4950327;28;20551;-87
2022/08/31 18:30:41;;;;;;;1.55;0.75;;;;;;;;;;4940955;28;20047;-84
2022/08/31 18:48:21;;;;;;;2.85;0.80;;;;;;;;;;4820198;29;20046;-84
2022/08/31 18:51:01;;;;;;;2.40;0.95;;;;;;;;;;4806521;29;20153;-84
2022/08/31 18:54:44;;;;;;;1.38;0.60;;;;;;;;;;4804885;29;20134;-83
2022/08/31 18:59:18;;;;;;;2.03;0.50;;;;;;;;;;4757640;30;20079;-84
2022/08/31 19:03:01;;;;;;;1.98;0.60;;;;;;;;;;4723890;30;20044;-84
2022/08/31 19:05:48;;;;;;;1.30;0.60;;;;;;;;;;4741751;30;20064;-85
2022/08/31 19:09:15;;;;;;;3.63;0.63;;;;;;;;;;4738762;30;20044;-83
2022/08/31 19:12:59;;;;;;;1.10;0.52;;;;;;;;;;4750354;30;20063;-84
2022/08/31 19:16:41;;;;;;;2.80;0.55;;;;;;;;;;4753026;30;20396;-84
2022/08/31 19:19:44;;;;;;;1.30;0.60;;;;;;;;;;4768119;30;20068;-84
2022/08/31 19:22:42;;;;;;;2.97;0.85;;;;;;;;;;4726809;30;20499;-83
2022/08/31 19:25:47;;;;;;;2.65;0.85;;;;;;;;;;4713609;30;20565;-85
2022/08/31 19:28:55;;;;;;;1.55;0.80;;;;;;;;;;4716954;30;20057;-84
2022/08/31 19:32:12;;;;;;;1.95;0.80;;;;;;;;;;4736027;30;20060;-84
2022/08/31 19:46:28;;;;;;;1.77;0.73;;;;;;;;;;4851482;29;20051;-85
2022/08/31 19:56:03;;;;;;;1.52;0.68;;;;;;;;;;4827174;29;20532;-85
2022/08/31 20:05:23;;;;;;;1.15;0.80;;;;;;;;;;4826908;29;20062;-86
2022/08/31 20:10:17;;;;;;;1.35;0.77;;;;;;;;;;4826612;29;20233;-86
2022/08/31 20:14:58;;;;;;;1.42;0.80;;;;;;;;;;4808959;29;20095;-86
2022/08/31 20:18:58;;;;;;;3.65;0.70;;;;;;;;;;4773740;29;20058;-85
2022/08/31 20:23:35;;;;;;;3.45;0.80;;;;;;;;;;4762469;29;20054;-85
2022/08/31 20:27:36;;;;;;;2.15;1.00;;;;;;;;;;4753104;30;20167;-85
2022/08/31 20:30:44;;;;;;;;;;;;;;;;;;4741087;30;20593;-86
2022/08/31 20:34:20;;;;;;;2.45;0.80;;;;;;;;;;4750758;30;19930;-86
2022/08/31 20:37:14;;;;;;;1.80;0.80;;;;;;;;;;4757772;30;20445;-84
2022/08/31 20:44:32;;;;;;;2.20;0.88;;;;;;;;;;4725428;30;20069;-85
2022/08/31 20:52:53;;;;;;;1.98;0.90;;;;;;;;;;4851818;29;20228;-84
2022/08/31 20:56:38;;;;;;;1.20;0.63;;;;;;;;;;4858954;29;21074;-83
2022/08/31 20:59:33;;;;;;;1.85;0.70;;;;;;;;;;4885471;29;20049;-84
2022/08/31 21:12:19;;;;;;;2.08;0.88;;;;;;;;;;4827031;29;20497;-84
2022/08/31 21:17:05;;;;;;;1.77;0.70;;;;;;;;;;4847792;29;20104;-84
2022/08/31 21:21:00;;;;;;;1.48;0.75;;;;;;;;;;4851450;29;20564;-84
2022/08/31 21:25:25;;;;;;;4.95;0.95;;;;;;;;;;4850214;29;20944;-85
2022/08/31 21:29:42;;;;;;;2.78;1.13;;;;;;;;;;4775118;29;20133;-85
2022/08/31 21:33:59;;;;;;;4.35;0.93;;;;;;;;;;4722761;30;20056;-86
2022/08/31 21:38:01;;;;;;;1.40;0.70;;;;;;;;;;4760056;30;20054;-85
2022/08/31 21:41:27;;;;;;;3.30;1.00;;;;;;;;;;4772290;30;20059;-85
2022/08/31 21:44:52;;;;;;;1.75;0.80;;;;;;;;;;4773502;29;20112;-84
2022/08/31 21:48:42;;;;;;;1.45;0.82;;;;;;;;;;4775905;29;20082;-85
2022/08/31 21:52:00;;;;;;;1.92;1.00;;;;;;;;;;4805893;29;20066;-85
2022/08/31 21:55:04;;;;;;;2.50;1.00;;;;;;;;;;4807162;29;20074;-83
2022/08/31 21:57:32;;;;;;;2.08;0.95;;;;;;;;;;4811689;29;20440;-83
2022/08/31 22:00:00;;;;;;;2.65;1.00;;;;;;;;;;4811761;29;20066;-83
2022/08/31 22:02:28;;;;;;;2.80;1.17;;;;;;;;;;4819781;29;20148;-83
2022/08/31 22:07:50;;;;;;;6.55;1.40;;;;;;;;;;4882392;29;20091;-82
2022/08/31 22:10:24;;;;;;;2.33;1.13;;;;;;;;;;4884672;29;20057;-82
2022/08/31 22:12:57;;;;;;;2.30;0.80;;;;;;;;;;4872714;29;20067;-82
2022/08/31 22:15:26;;;;;;;2.85;1.17;;;;;;;;;;4887266;29;20142;-82
2022/08/31 22:17:54;;;;;;;3.88;1.15;;;;;;;;;;4902329;29;20067;-81
2022/08/31 22:20:46;;;;;;;2.33;1.02;;;;;;;;;;4905278;29;20063;-81
2022/08/31 22:23:18;;;;;;;2.35;1.02;;;;;;;;;;4906409;28;20087;-82
2022/08/31 22:25:48;;;;;;;2.58;1.10;;;;;;;;;;4972132;28;20046;-82
2022/08/31 22:28:21;;;;;;;2.00;0.93;;;;;;;;;;4956772;28;20062;-82
2022/08/31 22:31:15;;;;;;;3.58;1.00;;;;;;;;;;4973980;28;20054;-83
2022/08/31 22:34:03;;;;;;;3.08;0.93;;;;;;;;;;4953954;28;20054;-83
2022/08/31 22:37:37;;;;;;;3.33;1.10;;;;;;;;;;4960882;28;20043;-83
2022/08/31 22:41:06;;;;;;;2.20;1.10;;;;;;;;;;4952729;28;20150;-83
2022/08/31 22:43:43;;;;;;;2.22;1.05;;;;;;;;;;4912776;28;20089;-83
2022/08/31 22:47:27;;;;;;;2.75;1.27;;;;;;;;;;4962359;28;20142;-83
2022/08/31 22:50:45;;;;;;;1.50;0.85;;;;;;;;;;4964834;28;20142;-84
2022/08/31 22:53:36;;;;;;;1.85;1.00;;;;;;;;;;4924408;28;20059;-82
2022/08/31 22:56:25;;;;;;;1.90;1.10;;;;;;;;;;4933911;28;20813;-83
2022/08/31 22:58:56;;;;;;;1.90;0.90;;;;;;;;;;4948727;28;20158;-82
2022/08/31 23:01:53;;;;;;;2.83;1.00;;;;;;;;;;4937872;28;20062;-84
2022/08/31 23:04:49;;;;;;;5.72;1.52;;;;;;;;;;4958173;28;20058;-84
2022/08/31 23:07:30;;;;;;;4.43;1.10;;;;;;;;;;4936774;28;20154;-84
2022/08/31 23:10:40;;;;;;;2.67;1.30;;;;;;;;;;4980265;28;20054;-85
2022/08/31 23:13:50;;;;;;;1.50;0.80;;;;;;;;;;4982834;28;20542;-84
2022/08/31 23:16:45;;;;;;;4.28;1.05;;;;;;;;;;4947525;28;20053;-83
2022/08/31 23:19:35;;;;;;;2.38;1.13;;;;;;;;;;4943919;28;20054;-83
2022/08/31 23:22:16;;;;;;;2.90;1.00;;;;;;;;;;4979423;28;20075;-83
2022/08/31 23:25:22;;;;;;;2.42;1.00;;;;;;;;;;4956142;28;20109;-83
2022/08/31 23:28:36;;;;;;;2.25;1.00;;;;;;;;;;4936197;28;20144;-83
2022/08/31 23:31:23;;;;;;;2.13;1.00;;;;;;;;;;4957803;28;20089;-83
2022/08/31 23:34:11;;;;;;;1.98;0.80;;;;;;;;;;4944576;28;20055;-83
2022/08/31 23:37:36;;;;;;;1.75;0.90;;;;;;;;;;4980908;28;20069;-83
2022/08/31 23:40:29;;;;;;;;;;;;;;;;;;4965372;28;20146;-83
2022/08/31 23:43:45;;;;;;;2.05;1.08;;;;;;;;;;4958947;28;19933;-83
2022/08/31 23:46:34;;;;;;;2.65;1.00;;;;;;;;;;4959575;28;20181;-84
2022/08/31 23:52:52;;;;;;;2.10;0.98;;;;;;;;;;4973538;28;20054;-84
